Time;durP1;ratioP1;P1;durP2;ratioP2;P2;SDS_P1;SDS_P2;PMS_P1;PMS_P2;Temp;Humidity;BMP_temperature;BMP_pressure;BME280_temperature;BME280_humidity;BME280_pressure;Samples;Min_cycle;Max_cycle;Signal;HPM_P1;HPM_P2
2022/02/13 00:01:11;;;;;;;;;18.50;17.75;;;;;20.11;29.74;101547.63;5056151;28;46321;-63
2022/02/13 00:03:36;;;;;;;;;19.25;17.25;;;;;20.10;29.78;101543.28;5037941;28;45287;-61
2022/02/13 00:06:02;;;;;;;;;17.25;16.75;;;;;20.07;30.26;101538.97;5055811;28;45225;-61
2022/02/13 00:08:27;;;;;;;;;16.25;15.50;;;;;20.05;30.13;101527.69;5056297;28;45418;-61
2022/02/13 00:10:53;;;;;;;;;19.50;17.00;;;;;20.02;30.08;101526.00;5040835;28;46023;-61
2022/02/13 00:13:18;;;;;;;;;15.25;13.00;;;;;20.01;30.38;101519.03;5059627;28;45335;-61
2022/02/13 00:15:43;;;;;;;;;24.00;17.50;;;;;20.00;29.87;101522.63;5059673;28;45285;-61
2022/02/13 00:18:09;;;;;;;;;16.25;15.00;;;;;19.96;30.20;101515.75;5059545;28;45536;-61
2022/02/13 00:20:34;;;;;;;;;15.50;15.50;;;;;19.94;29.80;101496.56;5041167;28;45963;-61
2022/02/13 00:23:00;;;;;;;;;15.75;15.00;;;;;19.92;30.24;101499.25;5059331;28;45382;-61
2022/02/13 00:25:25;;;;;;;;;15.00;13.75;;;;;19.90;30.38;101492.31;5059638;28;45289;-61
2022/02/13 00:27:50;;;;;;;;;16.50;15.50;;;;;19.86;30.12;101486.34;5059483;28;45298;-61
2022/02/13 00:30:17;;;;;;;;;14.25;13.25;;;;;19.85;29.77;101487.22;5041072;28;46335;-61
2022/02/13 00:32:48;;;;;;;;;19.00;16.75;;;;;19.83;30.30;101482.97;5059377;28;45988;-61
2022/02/13 00:35:14;;;;;;;;;16.50;16.50;;;;;19.80;30.11;101480.44;5059494;28;45340;-61
2022/02/13 00:37:39;;;;;;;;;15.00;13.50;;;;;19.77;30.18;101482.31;5059403;28;45353;-61
2022/02/13 00:40:06;;;;;;;;;20.00;17.50;;;;;19.74;29.86;101474.53;5057623;28;47297;-61
2022/02/13 00:42:32;;;;;;;;;18.25;15.75;;;;;19.73;29.85;101466.72;5058866;28;45862;-61
2022/02/13 00:44:59;;;;;;;;;15.50;14.75;;;;;19.70;30.34;101454.53;5040990;28;45383;-61
2022/02/13 00:47:24;;;;;;;;;19.75;17.75;;;;;19.69;30.01;101452.81;5059145;28;45345;-61
2022/02/13 00:49:49;;;;;;;;;17.75;16.25;;;;;19.68;29.88;101445.84;5058693;28;45717;-61
2022/02/13 00:52:15;;;;;;;;;18.50;16.50;;;;;19.67;29.72;101444.19;5059171;28;45395;-61
2022/02/13 00:54:40;;;;;;;;;14.50;14.50;;;;;19.66;30.10;101439.84;5059004;28;45535;-61
2022/02/13 00:57:05;;;;;;;;;16.25;16.25;;;;;19.62;30.16;101431.19;5059256;28;45435;-61
2022/02/13 00:59:31;;;;;;;;;19.00;17.00;;;;;19.62;30.28;101433.81;5058780;28;45331;-61
2022/02/13 01:01:56;;;;;;;;;20.00;14.25;;;;;19.62;30.11;101444.34;5058759;28;45268;-61
2022/02/13 01:04:22;;;;;;;;;15.50;14.50;;;;;19.61;29.99;101436.53;5058948;28;45414;-61
2022/02/13 01:06:47;;;;;;;;;12.00;12.00;;;;;19.59;30.19;101438.34;5059246;28;45526;-61
2022/02/13 01:09:13;;;;;;;;;16.25;15.50;;;;;19.58;30.36;101427.00;5058879;28;49078;-61
2022/02/13 01:11:38;;;;;;;;;17.75;17.75;;;;;19.58;30.13;101428.75;5040538;28;45411;-61
2022/02/13 01:14:04;;;;;;;;;13.75;13.50;;;;;19.55;30.07;101421.84;5058591;28;45383;-61
2022/02/13 01:16:30;;;;;;;;;16.50;16.50;;;;;19.55;30.13;101426.28;5058859;28;45343;-61
2022/02/13 01:18:55;;;;;;;;;15.25;14.75;;;;;19.52;30.21;101426.41;5058328;28;48649;-61
2022/02/13 01:21:21;;;;;;;;;15.00;15.00;;;;;19.52;30.03;101424.59;5058426;28;45332;-61
2022/02/13 01:23:46;;;;;;;;;16.00;14.00;;;;;19.50;30.24;101418.59;5059091;28;45593;-61
2022/02/13 01:26:12;;;;;;;;;17.50;15.75;;;;;19.50;30.47;101417.72;5058748;28;45582;-61
2022/02/13 01:28:38;;;;;;;;;15.00;13.25;;;;;19.49;30.18;101416.88;5058265;28;46411;-61
2022/02/13 01:31:06;;;;;;;;;12.75;12.75;;;;;19.47;30.44;101411.66;5058582;28;45340;-60
2022/02/13 01:33:32;;;;;;;;;15.25;13.50;;;;;19.47;30.18;101398.50;5058466;28;45257;-61
2022/02/13 01:35:58;;;;;;;;;15.50;13.25;;;;;19.45;30.59;101391.63;5058585;28;45590;-61
2022/02/13 01:38:24;;;;;;;;;15.25;14.50;;;;;19.45;30.65;101394.25;5040307;28;48020;-61
2022/02/13 01:40:50;;;;;;;;;15.25;14.75;;;;;19.44;30.46;101396.03;5058089;28;45809;-61
2022/02/13 01:43:16;;;;;;;;;13.50;13.25;;;;;19.43;30.31;101399.56;5058708;28;45348;-61
2022/02/13 01:45:41;;;;;;;;;15.25;13.50;;;;;19.42;30.24;101400.50;5058825;28;45738;-61
2022/02/13 01:48:08;;;;;;;;;14.50;14.50;;;;;19.40;30.28;101402.31;5057997;28;46520;-61
2022/02/13 01:50:34;;;;;;;;;13.25;13.25;;;;;19.40;30.31;101397.06;5058178;28;46039;-60
2022/02/13 01:53:00;;;;;;;;;16.50;15.00;;;;;19.38;30.29;101409.41;5058259;28;45322;-61
2022/02/13 01:55:25;;;;;;;;;17.00;13.00;;;;;19.37;30.35;101402.44;5058298;28;45411;-60
2022/02/13 01:57:51;;;;;;;;;13.75;12.50;;;;;19.37;30.19;101401.59;5057912;28;45446;-61
2022/02/13 02:00:16;;;;;;;;;14.75;13.50;;;;;19.37;30.32;101406.84;5058269;28;45382;-61
2022/02/13 02:02:41;;;;;;;;;13.00;12.75;;;;;19.35;30.57;101396.38;5057904;28;45269;-61
2022/02/13 02:05:07;;;;;;;;;14.25;12.25;;;;;19.35;30.16;101406.91;5058284;28;45637;-61
2022/02/13 02:07:33;;;;;;;;;13.00;12.25;;;;;19.34;30.31;101393.84;5057629;28;46463;-61
2022/02/13 02:09:58;;;;;;;;;12.25;11.75;;;;;19.33;30.60;101379.84;5057768;28;45251;-61
2022/02/13 02:12:25;;;;;;;;;14.50;11.50;;;;;19.31;30.51;101377.25;5057950;28;45261;-61
2022/02/13 02:14:50;;;;;;;;;10.50;10.50;;;;;19.30;30.51;101378.19;5040028;28;45333;-61
2022/02/13 02:17:16;;;;;;;;;12.25;10.50;;;;;19.30;30.25;101369.47;5057618;28;45291;-61
2022/02/13 02:19:41;;;;;;;;;14.00;11.25;;;;;19.28;30.62;101361.66;5057748;28;45950;-61
2022/02/13 02:22:08;;;;;;;;;14.25;12.50;;;;;19.27;30.26;101364.31;5056421;28;45442;-61
2022/02/13 02:24:34;;;;;;;;;14.00;13.50;;;;;19.25;30.16;101359.13;5057942;28;45468;-61
2022/02/13 02:27:00;;;;;;;;;14.25;12.50;;;;;19.23;30.53;101347.00;5057319;28;45505;-61
2022/02/13 02:29:26;;;;;;;;;10.00;10.00;;;;;19.24;30.31;101349.53;5057376;28;45304;-61
2022/02/13 02:31:51;;;;;;;;;12.25;12.00;;;;;19.22;30.41;101340.03;5057213;28;45404;-61
2022/02/13 02:34:16;;;;;;;;;13.75;13.75;;;;;19.22;30.49;101332.13;5057855;28;45210;-61
2022/02/13 02:36:42;;;;;;;;;12.50;12.50;;;;;19.21;30.59;101319.91;5057296;28;46530;-61
2022/02/13 02:39:07;;;;;;;;;11.50;10.00;;;;;19.19;30.55;101308.59;5057257;28;45392;-61
2022/02/13 02:41:33;;;;;;;;;13.00;12.25;;;;;19.19;30.39;101308.59;5057369;28;45289;-61
2022/02/13 02:43:59;;;;;;;;;10.75;8.50;;;;;19.18;30.21;101306.91;5057545;28;45531;-61
2022/02/13 02:46:24;;;;;;;;;11.75;9.50;;;;;19.18;30.39;101309.53;5057109;28;45420;-61
2022/02/13 02:48:50;;;;;;;;;12.00;11.00;;;;;19.16;30.38;101307.81;5057592;28;45324;-61
2022/02/13 02:51:15;;;;;;;;;14.25;10.75;;;;;19.16;30.57;101304.34;5057363;28;45255;-61
2022/02/13 02:53:42;;;;;;;;;12.00;10.25;;;;;19.13;30.31;101300.06;5039419;28;45154;-61
2022/02/13 02:56:09;;;;;;;;;10.25;10.25;;;;;19.14;30.65;101301.75;5057055;28;45887;-61
2022/02/13 02:58:34;;;;;;;;;13.50;10.00;;;;;19.14;30.63;101303.56;5057034;28;45924;-61
2022/02/13 03:00:59;;;;;;;;;8.00;8.00;;;;;19.09;30.59;101281.84;5057053;28;45568;-61
2022/02/13 03:03:25;;;;;;;;;13.50;11.25;;;;;19.11;30.65;101294.03;5057287;28;45376;-61
2022/02/13 03:05:51;;;;;;;;;10.75;10.75;;;;;19.11;30.71;101301.91;5057154;28;46469;-61
2022/02/13 03:08:17;;;;;;;;;12.25;11.25;;;;;19.11;30.69;101298.41;5038851;28;45531;-61
2022/02/13 03:10:43;;;;;;;;;14.25;12.00;;;;;19.09;30.52;101297.63;5056995;28;45352;-61
2022/02/13 03:13:10;;;;;;;;;13.25;11.75;;;;;19.08;30.43;101291.53;5057034;28;45332;-61
2022/02/13 03:15:36;;;;;;;;;11.50;10.00;;;;;19.05;30.42;101289.00;5056330;28;46382;-61
2022/02/13 03:18:01;;;;;;;;;10.50;9.50;;;;;19.06;30.46;101285.47;5056703;28;45256;-61
2022/02/13 03:20:26;;;;;;;;;10.75;9.25;;;;;19.06;30.55;101282.84;5056964;28;45337;-61
2022/02/13 03:22:52;;;;;;;;;10.25;8.50;;;;;19.05;30.53;101278.50;5057166;28;45397;-61
2022/02/13 03:25:17;;;;;;;;;11.00;9.25;;;;;19.05;30.58;101268.00;5056551;28;45319;-61
2022/02/13 03:27:42;;;;;;;;;11.25;9.75;;;;;19.05;30.66;101270.63;5056510;28;45330;-61
2022/02/13 03:30:08;;;;;;;;;9.00;8.25;;;;;19.04;30.51;101268.91;5056523;28;45449;-61
2022/02/13 03:32:33;;;;;;;;;10.25;10.00;;;;;19.04;30.65;101262.81;5056679;28;45442;-61
2022/02/13 03:35:00;;;;;;;;;10.50;10.50;;;;;19.03;30.59;101250.59;5056443;28;46693;-61
2022/02/13 03:37:25;;;;;;;;;11.50;10.00;;;;;19.02;30.36;101248.88;5056216;28;45383;-61
2022/02/13 03:39:51;;;;;;;;;13.00;11.00;;;;;19.00;30.73;101254.22;5056901;28;46002;-61
2022/02/13 03:42:16;;;;;;;;;11.00;10.00;;;;;19.00;30.62;101251.59;5056661;28;45458;-61
2022/02/13 03:44:42;;;;;;;;;11.00;11.00;;;;;18.99;30.49;101257.75;5055117;28;46440;-61
2022/02/13 03:47:08;;;;;;;;;10.75;10.75;;;;;18.98;30.49;101250.78;5056271;28;45434;-61
2022/02/13 03:49:34;;;;;;;;;10.25;10.00;;;;;18.98;30.84;101250.78;5056511;28;45380;-61
2022/02/13 03:51:59;;;;;;;;;8.25;8.25;;;;;18.95;30.77;101237.78;5056506;28;45360;-61
2022/02/13 03:54:25;;;;;;;;;10.25;10.25;;;;;18.95;30.45;101236.03;5056394;28;45498;-61
2022/02/13 03:56:50;;;;;;;;;11.50;10.75;;;;;18.94;30.70;101231.69;5056105;28;45766;-61
2022/02/13 03:59:15;;;;;;;;;9.75;9.25;;;;;18.94;30.39;101239.56;5054980;28;45339;-61
2022/02/13 04:01:41;;;;;;;;;14.25;12.00;;;;;18.92;30.71;101232.63;5056444;28;45281;-61
2022/02/13 04:04:06;;;;;;;;;11.50;10.50;;;;;18.93;30.67;101231.72;5056053;28;45358;-61
2022/02/13 04:06:32;;;;;;;;;13.50;13.00;;;;;18.92;30.60;101232.63;5056167;28;45587;-61
2022/02/13 04:08:57;;;;;;;;;12.50;12.50;;;;;18.91;30.64;101236.16;5038139;28;45331;-61
2022/02/13 04:11:23;;;;;;;;;13.50;12.00;;;;;18.91;30.84;101238.78;5056615;28;45232;-61
2022/02/13 04:13:48;;;;;;;;;11.25;9.00;;;;;18.91;30.53;101236.16;5055738;28;45343;-61
2022/02/13 04:16:14;;;;;;;;;7.75;7.75;;;;;18.88;30.88;101229.28;5055971;28;45786;-61
2022/02/13 04:18:39;;;;;;;;;14.00;11.00;;;;;18.89;30.44;101224.91;5056117;28;45315;-61
2022/02/13 04:21:05;;;;;;;;;13.50;12.50;;;;;18.88;30.47;101225.81;5056155;28;45412;-61
2022/02/13 04:23:31;;;;;;;;;11.00;11.00;;;;;18.87;30.73;101221.47;5055834;28;45319;-61
2022/02/13 04:26:00;;;;;;;;;9.50;9.50;;;;;18.87;30.76;101216.22;5056016;28;45280;-61
2022/02/13 04:28:27;;;;;;;;;9.25;9.25;;;;;18.83;31.13;101212.88;5056237;28;45400;-61
2022/02/13 04:30:54;;;;;;;;;10.00;10.00;;;;;18.84;30.67;101222.47;5056026;28;45328;-61
2022/02/13 04:33:20;;;;;;;;;10.00;10.00;;;;;18.83;30.74;101210.25;5055718;28;46329;-61
2022/02/13 04:35:45;;;;;;;;;8.75;8.75;;;;;18.83;30.80;101212.88;5055724;28;45372;-61
2022/02/13 04:38:10;;;;;;;;;10.00;9.00;;;;;18.82;30.56;101206.75;5055806;28;45410;-61
2022/02/13 04:40:36;;;;;;;;;11.00;11.00;;;;;18.81;30.82;101202.41;5056019;28;45546;-61
2022/02/13 04:43:01;;;;;;;;;11.50;11.00;;;;;18.78;30.64;101199.94;5055524;28;45307;-61
2022/02/13 04:45:26;;;;;;;;;12.25;10.75;;;;;18.79;30.49;101196.41;5055964;28;45594;-61
2022/02/13 04:47:52;;;;;;;;;12.50;10.25;;;;;18.78;30.63;101189.44;5055781;28;45286;-61
2022/02/13 04:50:21;;;;;;;;;12.25;10.50;;;;;18.77;30.71;101185.09;5055962;28;45541;-61
2022/02/13 04:52:54;;;;;;;;;10.25;10.25;;;;;18.78;31.09;101181.56;5055450;28;46357;-61
2022/02/13 04:55:21;;;;;;;;;9.00;9.00;;;;;18.77;30.76;101176.34;5056464;28;45824;-61
2022/02/13 04:57:46;;;;;;;;;10.50;10.50;;;;;18.77;30.86;101171.97;5059154;28;45225;-61
2022/02/13 05:00:14;;;;;;;;;11.25;9.25;;;;;18.76;30.77;101170.25;5059356;28;45550;-61
2022/02/13 05:02:40;;;;;;;;;14.75;11.75;;;;;18.75;30.84;101171.19;5058661;28;46396;-61
2022/02/13 05:05:05;;;;;;;;;10.00;10.00;;;;;18.71;30.87;101153.84;5058732;28;45322;-61
2022/02/13 05:07:31;;;;;;;;;9.25;9.25;;;;;18.75;30.96;101158.03;5058797;28;45315;-61
2022/02/13 05:09:56;;;;;;;;;11.00;8.00;;;;;18.73;30.70;101159.03;5059282;28;45542;-61
2022/02/13 05:12:22;;;;;;;;;8.75;8.75;;;;;18.74;30.59;101156.34;5058492;28;46485;-61
2022/02/13 05:14:47;;;;;;;;;12.00;9.50;;;;;18.73;30.74;101153.78;5058571;28;45611;-61
2022/02/13 05:17:13;;;;;;;;;9.75;9.50;;;;;18.73;31.01;101151.16;5058688;28;45357;-61
2022/02/13 05:19:39;;;;;;;;;9.50;9.50;;;;;18.72;30.70;101152.91;5058899;28;45634;-61
2022/02/13 05:22:04;;;;;;;;;10.00;9.25;;;;;18.70;30.75;101144.25;5058229;28;45624;-61
2022/02/13 05:24:34;;;;;;;;;11.25;11.25;;;;;18.69;30.98;101140.78;5058761;28;45193;-61
2022/02/13 05:27:00;;;;;;;;;8.50;8.50;;;;;18.69;30.83;101132.91;5057742;28;45542;-61
2022/02/13 05:29:25;;;;;;;;;8.00;8.00;;;;;18.69;31.13;101134.66;5058810;28;45513;-61
2022/02/13 05:31:50;;;;;;;;;10.25;9.75;;;;;18.67;30.99;101124.22;5058347;28;46236;-61
2022/02/13 05:34:16;;;;;;;;;13.00;11.00;;;;;18.66;30.61;101127.78;5058452;28;45412;-61
2022/02/13 05:36:43;;;;;;;;;11.50;7.50;;;;;18.67;30.79;101120.78;5058471;28;45466;-61
2022/02/13 05:39:08;;;;;;;;;6.00;5.00;;;;;18.65;30.83;101119.97;5058576;28;45169;-61
2022/02/13 05:41:33;;;;;;;;;10.25;8.00;;;;;18.65;30.83;101119.97;5057967;28;46458;-61
2022/02/13 05:43:59;;;;;;;;;9.25;8.25;;;;;18.64;30.82;101118.25;5058545;28;45232;-61
2022/02/13 05:46:25;;;;;;;;;9.00;8.75;;;;;18.66;30.80;101116.44;5058378;28;45198;-61
2022/02/13 05:48:51;;;;;;;;;11.00;9.25;;;;;18.63;30.78;101106.91;5058414;28;45237;-61
2022/02/13 05:51:16;;;;;;;;;9.25;8.50;;;;;18.63;31.28;101121.81;5058218;28;46514;-61
2022/02/13 05:53:42;;;;;;;;;9.75;8.25;;;;;18.62;30.79;101110.47;5058033;28;45404;-61
2022/02/13 05:56:07;;;;;;;;;10.25;10.25;;;;;18.61;30.96;101102.63;5058183;28;45446;-61
2022/02/13 05:58:36;;;;;;;;;9.75;9.00;;;;;18.63;30.72;101098.19;5058362;28;45568;-61
2022/02/13 06:01:02;;;;;;;;;11.50;9.00;;;;;18.61;31.23;101098.25;5058035;28;46525;-61
2022/02/13 06:03:28;;;;;;;;;10.25;8.00;;;;;18.61;30.59;101094.75;5058295;28;45710;-61
2022/02/13 06:05:53;;;;;;;;;8.50;8.50;;;;;18.60;30.80;101098.31;5058127;28;45288;-61
2022/02/13 06:08:18;;;;;;;;;8.25;8.00;;;;;18.60;30.85;101095.69;5057058;28;45565;-61
2022/02/13 06:10:44;;;;;;;;;8.00;7.50;;;;;18.55;30.72;101095.88;5057746;28;45779;-61
2022/02/13 06:13:11;;;;;;;;;11.25;7.25;;;;;18.59;30.65;101101.84;5057781;28;45236;-61
2022/02/13 06:15:36;;;;;;;;;8.00;7.00;;;;;18.58;30.98;101098.38;5057709;28;45201;-61
2022/02/13 06:18:02;;;;;;;;;10.25;8.50;;;;;18.57;30.85;101095.84;5058341;28;45560;-61
2022/02/13 06:20:27;;;;;;;;;7.25;6.50;;;;;18.57;30.90;101085.34;5057696;28;46643;-61
2022/02/13 06:22:52;;;;;;;;;9.00;7.00;;;;;18.58;30.90;101097.50;5057498;28;45926;-61
2022/02/13 06:25:18;;;;;;;;;9.00;8.25;;;;;18.54;30.91;101089.78;5057688;28;45791;-61
2022/02/13 06:27:43;;;;;;;;;10.25;10.25;;;;;18.56;30.78;101094.13;5057822;28;45538;-61
2022/02/13 06:30:09;;;;;;;;;9.25;9.25;;;;;18.54;30.83;101092.41;5057346;28;46245;-61
2022/02/13 06:32:35;;;;;;;;;10.00;8.50;;;;;18.56;30.85;101099.38;5057340;28;45624;-61
2022/02/13 06:35:00;;;;;;;;;10.50;9.50;;;;;18.54;30.85;101097.66;5057780;28;45410;-61
2022/02/13 06:37:25;;;;;;;;;10.50;7.25;;;;;18.53;30.76;101092.47;5057693;28;45591;-61
2022/02/13 06:39:51;;;;;;;;;12.75;9.00;;;;;18.52;30.93;101086.38;5057309;28;46261;-63
2022/02/13 06:42:16;;;;;;;;;9.67;8.00;;;;;18.51;30.99;101092.53;5057167;28;45506;-61
2022/02/13 06:44:41;;;;;;;;;8.50;8.00;;;;;18.53;30.74;101093.34;5057422;28;45405;-61
2022/02/13 06:47:07;;;;;;;;;7.50;7.50;;;;;18.50;30.82;101085.56;5057763;28;45494;-61
2022/02/13 06:49:32;;;;;;;;;11.00;8.00;;;;;18.51;30.97;101087.28;5057441;28;46276;-61
2022/02/13 06:51:58;;;;;;;;;9.00;8.00;;;;;18.50;30.36;101080.34;5057190;28;45391;-61
2022/02/13 06:54:23;;;;;;;;;13.00;11.75;;;;;18.42;29.55;101069.31;5057266;28;45365;-61
2022/02/13 06:56:49;;;;;;;;;10.25;10.00;;;;;18.24;30.09;101068.31;5057402;28;45442;-61
2022/02/13 06:59:15;;;;;;;;;11.25;10.75;;;;;18.09;29.20;101048.81;5056995;28;46567;-60
2022/02/13 07:01:40;;;;;;;;;11.00;10.50;;;;;17.96;29.06;101053.69;5056975;28;45817;-61
2022/02/13 07:04:06;;;;;;;;;14.25;14.25;;;;;17.83;29.34;101048.09;5039185;28;45269;-61
2022/02/13 07:06:31;;;;;;;;;15.00;15.00;;;;;17.68;29.26;101046.09;5057499;28;45498;-61
2022/02/13 07:08:56;;;;;;;;;12.00;11.25;;;;;17.58;28.89;101041.19;5056867;28;45635;-61
2022/02/13 07:11:22;;;;;;;;;15.25;13.50;;;;;17.51;28.95;101038.91;5055575;28;45927;-61
2022/02/13 07:13:47;;;;;;;;;15.33;13.33;;;;;17.40;28.87;101037.56;5056722;28;45459;-61
2022/02/13 07:16:12;;;;;;;;;17.00;14.67;;;;;17.31;28.75;101041.38;5057053;28;45253;-61
2022/02/13 07:18:37;;;;;;;;;17.25;14.00;;;;;17.21;28.80;101037.41;5056516;28;45520;-61
2022/02/13 07:21:03;;;;;;;;;12.25;12.00;;;;;17.14;28.94;101039.41;5056870;28;45566;-60
2022/02/13 07:23:28;;;;;;;;;14.25;13.00;;;;;17.09;28.90;101032.63;5056818;28;45435;-60
2022/02/13 07:25:54;;;;;;;;;15.25;15.25;;;;;17.07;28.94;101040.53;5056890;28;45622;-60
2022/02/13 07:31:03;;;;;;;;;13.00;13.00;;;;;17.12;29.68;101035.13;5056727;28;46044;-56
2022/02/13 07:33:28;;;;;;;;;11.25;11.25;;;;;17.20;29.99;101030.44;5056705;28;45350;-60
2022/02/13 07:35:54;;;;;;;;;13.00;11.25;;;;;17.36;30.12;101037.72;5056635;28;45308;-57
2022/02/13 07:38:19;;;;;;;;;12.25;10.00;;;;;17.42;29.82;101035.69;5056394;28;45583;-58
2022/02/13 07:40:44;;;;;;;;;11.00;11.00;;;;;17.48;29.93;101039.00;5056454;28;45407;-57
2022/02/13 07:43:11;;;;;;;;;12.33;11.33;;;;;17.52;29.77;101033.59;5056371;28;45259;-57
2022/02/13 07:45:37;;;;;;;;;13.00;11.00;;;;;17.58;29.71;101040.34;5057040;28;45545;-58
2022/02/13 07:48:02;;;;;;;;;10.25;10.25;;;;;17.62;29.72;101047.19;5056282;28;45413;-57
2022/02/13 07:50:27;;;;;;;;;18.25;12.00;;;;;17.65;29.88;101048.84;5056335;28;45401;-57
2022/02/13 07:52:53;;;;;;;;;10.50;10.50;;;;;17.68;29.90;101033.00;5038265;28;45302;-57
2022/02/13 07:55:18;;;;;;;;;12.75;10.50;;;;;17.71;29.77;101024.97;5056512;28;45641;-58
2022/02/13 07:57:44;;;;;;;;;11.25;11.25;;;;;17.70;29.70;101013.66;5038025;28;47180;-57
2022/02/13 08:00:10;;;;;;;;;10.75;9.75;;;;;17.73;29.74;101015.28;5056189;28;45447;-57
2022/02/13 08:02:36;;;;;;;;;11.50;10.50;;;;;17.74;29.70;101006.50;5056466;28;45270;-57
2022/02/13 08:05:05;;;;;;;;;11.25;9.00;;;;;17.75;29.70;101002.97;5038374;28;45546;-58
2022/02/13 08:07:31;;;;;;;;;14.00;12.00;;;;;17.75;29.75;100987.25;5055897;28;46926;-57
2022/02/13 08:09:56;;;;;;;;;10.75;9.00;;;;;17.76;29.62;100979.31;5055996;28;45415;-58
2022/02/13 08:12:22;;;;;;;;;10.00;8.00;;;;;17.79;30.22;100978.34;5054897;28;45318;-57
2022/02/13 08:14:47;;;;;;;;;11.50;10.25;;;;;17.79;29.93;100978.34;5056155;28;45216;-57
2022/02/13 08:17:12;;;;;;;;;11.25;10.25;;;;;17.80;29.75;100974.81;5055774;28;46439;-57
2022/02/13 08:19:38;;;;;;;;;11.25;10.50;;;;;17.79;30.03;100960.00;5056075;28;45382;-58
2022/02/13 08:22:04;;;;;;;;;12.25;9.25;;;;;17.84;29.83;100951.94;5055910;28;45389;-57
2022/02/13 08:24:33;;;;;;;;;11.00;11.00;;;;;17.83;29.85;100943.22;5056130;28;45287;-58
2022/02/13 08:26:59;;;;;;;;;8.75;7.25;;;;;17.84;29.95;100952.78;5055728;28;46546;-57
2022/02/13 08:29:24;;;;;;;;;10.75;9.75;;;;;17.84;29.91;100950.16;5055914;28;45850;-58
2022/02/13 08:31:50;;;;;;;;;10.25;7.00;;;;;17.85;30.11;100949.25;5058859;28;45356;-58
2022/02/13 08:34:15;;;;;;;;;11.67;8.00;;;;;17.87;30.40;100949.16;5059556;28;45287;-59
2022/02/13 08:36:40;;;;;;;;;11.50;11.50;;;;;17.91;30.23;100951.59;5059069;28;45406;-59
2022/02/13 08:39:08;;;;;;;;;9.25;9.25;;;;;17.96;30.11;100950.56;5059385;28;45422;-62
2022/02/13 08:41:34;;;;;;;;;10.50;10.50;;;;;18.00;30.25;100941.69;5059077;28;45309;-61
2022/02/13 08:43:59;;;;;;;;;11.00;9.00;;;;;18.03;30.64;100937.16;5059471;28;45208;-59
2022/02/13 08:46:24;;;;;;;;;9.75;9.75;;;;;18.06;30.29;100939.66;5058788;28;46364;-57
2022/02/13 08:48:50;;;;;;;;;8.75;8.25;;;;;18.08;30.22;100942.19;5058673;28;45269;-60
2022/02/13 08:51:15;;;;;;;;;9.25;8.00;;;;;18.09;30.33;100933.41;5059202;28;45243;-57
2022/02/13 08:53:41;;;;;;;;;10.50;8.50;;;;;18.12;30.54;100914.06;5059320;28;45277;-58
2022/02/13 08:56:07;;;;;;;;;12.75;10.25;;;;;18.10;30.55;100913.28;5059133;28;46107;-58
2022/02/13 08:58:33;;;;;;;;;9.00;8.00;;;;;18.10;30.33;100913.28;5058932;28;45615;-57
2022/02/13 09:00:59;;;;;;;;;11.50;10.00;;;;;18.13;30.43;100914.00;5058956;28;45369;-61
2022/02/13 09:03:24;;;;;;;;;9.25;9.00;;;;;18.11;30.30;100907.97;5058809;28;45253;-57
2022/02/13 09:05:50;;;;;;;;;9.50;8.25;;;;;18.11;30.37;100914.97;5058729;28;45502;-58
2022/02/13 09:08:15;;;;;;;;;10.75;9.25;;;;;18.09;30.32;100912.44;5058719;28;45304;-56
2022/02/13 09:10:40;;;;;;;;;10.25;9.25;;;;;18.15;30.44;100911.31;5059321;28;45336;-58
2022/02/13 09:13:08;;;;;;;;;10.25;7.75;;;;;18.17;30.39;100906.84;5059134;28;45452;-55
2022/02/13 09:15:33;;;;;;;;;10.75;10.25;;;;;18.21;30.44;100906.66;5058429;28;46546;-57
2022/02/13 09:17:59;;;;;;;;;13.00;9.50;;;;;18.27;30.48;100907.28;5058603;28;45250;-56
2022/02/13 09:20:24;;;;;;;;;12.00;10.75;;;;;18.32;30.62;100900.06;5058677;28;45241;-57
2022/02/13 09:22:50;;;;;;;;;8.25;8.25;;;;;18.35;30.35;100890.28;5058823;28;45451;-58
2022/02/13 09:25:16;;;;;;;;;10.00;10.00;;;;;18.40;30.40;100895.31;5058487;28;46083;-54
2022/02/13 09:27:41;;;;;;;;;11.00;8.50;;;;;18.46;30.59;100886.31;5058812;28;45363;-56
2022/02/13 09:30:07;;;;;;;;;11.50;9.50;;;;;18.51;30.72;100881.72;5058535;28;45319;-56
2022/02/13 09:32:32;;;;;;;;;10.50;9.50;;;;;18.58;30.57;100877.00;5058400;28;45485;-54
2022/02/13 09:34:58;;;;;;;;;9.75;8.00;;;;;18.63;30.61;100860.13;5058333;28;46281;-56
2022/02/13 09:37:24;;;;;;;;;6.50;6.00;;;;;18.67;30.68;100851.19;5058349;28;45844;-57
2022/02/13 09:39:50;;;;;;;;;12.00;9.25;;;;;18.73;30.34;100834.31;5040254;28;45329;-55
2022/02/13 09:42:19;;;;;;;;;9.50;8.25;;;;;18.78;30.44;100832.31;5057134;28;45664;-56
2022/02/13 09:44:45;;;;;;;;;12.00;10.25;;;;;18.79;30.59;100814.78;5058101;28;46412;-60
2022/02/13 09:47:11;;;;;;;;;9.25;8.75;;;;;18.87;30.47;100831.00;5058370;28;45278;-54
2022/02/13 09:49:37;;;;;;;;;8.00;7.25;;;;;18.93;30.57;100811.47;5058223;28;45230;-56
2022/02/13 09:52:04;;;;;;;;;10.75;7.75;;;;;18.96;30.70;100795.59;5058478;28;45510;-54
2022/02/13 09:54:29;;;;;;;;;9.25;8.75;;;;;19.01;30.34;100791.00;5058098;28;46653;-57
2022/02/13 09:57:59;;;;;;;;;10.25;8.75;;;;;19.06;30.37;100791.59;5039858;28;45439;-55
2022/02/13 10:00:06;;;;;;;;;7.00;7.00;;;;;19.11;30.48;100786.09;5058241;28;45538;-55
2022/02/13 10:02:39;;;;;;;;;6.75;6.75;;;;;19.13;30.43;100773.75;5054271;28;45258;-54
2022/02/13 10:05:08;;;;;;;;;8.00;7.00;;;;;19.18;30.42;100786.66;5057929;28;46568;-58
2022/02/13 10:07:37;;;;;;;;;6.25;6.25;;;;;19.20;30.66;100764.63;5057914;28;45343;-56
2022/02/13 10:10:06;;;;;;;;;6.00;6.00;;;;;19.23;30.87;100771.53;5058121;28;45196;-55
2022/02/13 10:12:43;;;;;;;;;7.50;7.50;;;;;19.24;30.72;100750.41;5058225;28;45609;-57
2022/02/13 10:15:20;;;;;;;;;7.25;7.25;;;;;19.28;30.71;100749.34;5057545;28;46479;-56
2022/02/13 10:18:04;;;;;;;;;8.25;6.75;;;;;19.29;30.51;100744.91;5057764;28;45966;-58
2022/02/13 10:20:35;;;;;;;;;9.50;7.75;;;;;19.32;30.65;100747.41;5057682;28;45316;-59
2022/02/13 10:23:12;;;;;;;;;10.00;8.25;;;;;19.36;30.38;100741.03;5056518;28;45335;-55
2022/02/13 10:25:38;;;;;;;;;7.25;7.25;;;;;19.39;30.84;100730.38;5057586;28;45591;-55
2022/02/13 10:28:15;;;;;;;;;8.50;8.25;;;;;19.41;30.78;100725.88;5057393;28;45904;-57
2022/02/13 10:30:46;;;;;;;;;9.00;9.00;;;;;19.45;30.50;100722.19;5057870;28;45344;-54
2022/02/13 10:33:38;;;;;;;;;8.25;8.00;;;;;19.49;30.77;100728.13;5057998;28;45502;-55
2022/02/13 10:36:12;;;;;;;;;12.50;7.75;;;;;19.50;30.63;100729.81;5053176;28;45490;-55
2022/02/13 10:38:42;;;;;;;;;6.00;6.00;;;;;19.55;30.65;100742.72;5057415;28;45871;-56
2022/02/13 10:41:29;;;;;;;;;6.25;5.50;;;;;19.57;30.64;100732.94;5039348;28;45432;-59
2022/02/13 10:44:05;;;;;;;;;6.50;6.50;;;;;19.60;31.05;100719.66;5057501;28;45389;-55
2022/02/13 10:46:34;;;;;;;;;9.00;7.25;;;;;19.62;31.15;100720.44;5057129;28;46528;-54
2022/02/13 10:49:00;;;;;;;;;8.50;7.50;;;;;19.62;31.29;100720.44;5057162;28;45350;-55
2022/02/13 10:51:25;;;;;;;;;8.00;8.00;;;;;19.63;31.32;100712.44;5057297;28;45356;-54
2022/02/13 10:53:52;;;;;;;;;7.00;7.00;;;;;19.63;31.10;100711.59;5057055;28;45314;-53
2022/02/13 10:56:19;;;;;;;;;9.25;6.50;;;;;19.66;31.44;100708.81;5057082;28;46414;-57
2022/02/13 10:58:44;;;;;;;;;7.75;7.00;;;;;19.65;31.32;100699.22;5039203;28;45793;-54
2022/02/13 11:01:11;;;;;;;;;8.00;7.50;;;;;19.67;31.23;100694.75;5057110;28;45419;-55
2022/02/13 11:03:37;;;;;;;;;8.25;7.25;;;;;19.68;31.44;100695.59;5057263;28;45460;-56
2022/02/13 11:06:06;;;;;;;;;7.75;7.75;;;;;19.69;31.59;100687.59;5056804;28;45336;-57
2022/02/13 11:08:54;;;;;;;;;7.00;7.00;;;;;19.70;31.46;100673.53;5056893;28;45388;-57
2022/02/13 11:11:21;;;;;;;;;8.00;7.50;;;;;19.72;31.48;100666.41;5057083;28;45375;-56
2022/02/13 11:13:47;;;;;;;;;6.75;6.00;;;;;19.72;31.53;100661.16;5057270;28;45908;-56